Time;durP1;ratioP1;P1;durP2;ratioP2;P2;SDS_P1;SDS_P2;PMS_P1;PMS_P2;Temp;Humidity;BMP_temperature;BMP_pressure;BME280_temperature;BME280_humidity;BME280_pressure;Samples;Min_cycle;Max_cycle;Signal;HPM_P1;HPM_P2
2022/10/02 00:01:46;;;;;;;5.17;4.78;;;;;;;10.79;100.00;98121.53;2131736;83;21029;-87
2022/10/02 00:04:46;;;;;;;6.12;4.47;;;;;;;10.78;100.00;98114.66;2087184;83;21041;-87
2022/10/02 00:07:47;;;;;;;6.75;3.98;;;;;;;10.74;100.00;98123.11;2081187;85;21536;-89
2022/10/02 00:10:48;;;;;;;5.35;4.35;;;;;;;10.70;100.00;98124.52;2079308;85;21050;-87
2022/10/02 00:13:48;;;;;;;4.92;4.42;;;;;;;10.71;100.00;98122.20;2109733;83;21056;-85
2022/10/02 00:16:49;;;;;;;5.20;4.67;;;;;;;10.71;100.00;98126.13;2141952;83;21061;-87
2022/10/02 00:19:50;;;;;;;4.87;4.15;;;;;;;10.72;100.00;98129.05;2173190;81;21582;-87
2022/10/02 00:22:51;;;;;;;6.72;4.33;;;;;;;10.74;100.00;98133.58;2163447;81;21274;-87
2022/10/02 00:25:52;;;;;;;6.37;5.00;;;;;;;10.76;100.00;98125.02;2157760;81;21056;-86
2022/10/02 00:28:53;;;;;;;5.17;4.67;;;;;;;10.78;100.00;98125.63;2169246;81;21048;-87
2022/10/02 00:31:53;;;;;;;4.47;4.05;;;;;;;10.78;100.00;98132.17;2158187;82;21012;-85
2022/10/02 00:34:54;;;;;;;5.78;4.35;;;;;;;10.82;100.00;98132.11;2168941;82;21074;-84
2022/10/02 00:37:55;;;;;;;5.58;4.75;;;;;;;10.84;100.00;98124.86;2148225;82;21563;-86
2022/10/02 00:40:55;;;;;;;5.22;4.15;;;;;;;10.82;100.00;98130.80;2129037;83;21136;-85
2022/10/02 00:43:56;;;;;;;5.40;4.45;;;;;;;10.78;100.00;98130.87;2142133;83;20988;-86
2022/10/02 00:46:57;;;;;;;5.90;4.42;;;;;;;10.81;100.00;98128.69;2144017;82;21040;-86
2022/10/02 00:49:58;;;;;;;8.63;4.72;;;;;;;10.80;100.00;98128.38;2125574;82;21095;-87
2022/10/02 00:52:59;;;;;;;7.10;4.90;;;;;;;10.85;100.00;98128.28;2139130;82;21001;-86
2022/10/02 00:55:59;;;;;;;5.08;4.42;;;;;;;10.88;100.00;98132.66;2156479;82;21044;-85
2022/10/02 00:59:00;;;;;;;3.67;3.47;;;;;;;10.88;100.00;98135.74;2168840;81;21044;-84
2022/10/02 01:02:01;;;;;;;4.28;3.90;;;;;;;10.87;100.00;98136.75;2154893;81;21084;-83
2022/10/02 01:05:02;;;;;;;4.62;3.40;;;;;;;10.86;100.00;98138.56;2150239;81;21009;-82
2022/10/02 01:08:02;;;;;;;3.80;3.40;;;;;;;10.86;100.00;98140.38;2146777;82;21107;-83
2022/10/02 01:11:03;;;;;;;3.77;3.47;;;;;;;10.90;100.00;98137.69;2148524;82;21588;-86
2022/10/02 01:14:04;;;;;;;3.50;3.27;;;;;;;10.92;100.00;98145.65;2143826;82;21000;-86
2022/10/02 01:17:04;;;;;;;3.80;3.50;;;;;;;10.94;100.00;98141.52;2151924;82;21449;-86
2022/10/02 01:20:05;;;;;;;3.90;3.60;;;;;;;10.98;100.00;98148.00;2144671;81;21586;-88
2022/10/02 01:23:06;;;;;;;3.65;3.35;;;;;;;11.00;100.00;98151.23;2159465;81;21614;-86
2022/10/02 01:26:07;;;;;;;4.33;4.00;;;;;;;10.96;100.00;98149.98;2152138;81;21075;-86
2022/10/02 01:29:08;;;;;;;3.65;3.45;;;;;;;10.94;100.00;98150.19;2140094;81;21622;-86
2022/10/02 01:32:08;;;;;;;4.17;3.77;;;;;;;10.98;100.00;98151.42;2140284;81;21456;-86
2022/10/02 01:35:09;;;;;;;4.15;3.75;;;;;;;11.01;100.00;98154.15;2144731;81;21573;-86
2022/10/02 01:38:10;;;;;;;5.30;4.15;;;;;;;11.00;100.00;98161.70;2154447;82;21006;-87
2022/10/02 01:41:11;;;;;;;4.20;3.90;;;;;;;11.03;100.00;98166.55;2139437;82;21081;-85
2022/10/02 01:44:11;;;;;;;5.03;3.95;;;;;;;11.05;100.00;98177.13;2156879;82;21049;-87
2022/10/02 01:47:12;;;;;;;5.33;3.87;;;;;;;11.06;100.00;98172.22;2169924;81;21464;-87
2022/10/02 01:50:13;;;;;;;3.92;3.62;;;;;;;11.10;100.00;98175.25;2166750;81;21032;-87
2022/10/02 01:53:14;;;;;;;4.70;4.10;;;;;;;11.10;100.00;98177.86;2160332;81;21005;-87
2022/10/02 01:56:15;;;;;;;6.53;5.90;;;;;;;11.08;100.00;98167.59;2162414;81;21083;-83
2022/10/02 01:59:16;;;;;;;5.90;4.92;;;;;;;11.10;100.00;98175.25;2164789;82;21580;-86
2022/10/02 02:02:16;;;;;;;6.20;5.08;;;;;;;11.08;100.00;98176.76;2161671;82;21017;-87
2022/10/02 02:05:17;;;;;;;5.22;4.37;;;;;;;11.09;100.00;98175.75;2149045;82;21570;-87
2022/10/02 02:08:17;;;;;;;5.87;4.42;;;;;;;11.10;100.00;98177.86;2173622;82;21556;-87
2022/10/02 02:11:18;;;;;;;4.75;4.17;;;;;;;11.10;100.00;98185.72;2170456;82;21026;-87
2022/10/02 02:14:19;;;;;;;5.55;4.75;;;;;;;11.09;100.00;98178.87;2162816;82;21036;-87
2022/10/02 02:17:20;;;;;;;5.20;4.33;;;;;;;11.07;100.00;98185.63;2156947;82;21599;-87
2022/10/02 02:20:21;;;;;;;8.65;4.30;;;;;;;11.07;100.00;98184.81;2149418;82;21518;-87
2022/10/02 02:23:21;;;;;;;4.28;3.77;;;;;;;11.08;100.00;98185.12;2171874;82;21083;-86
2022/10/02 02:26:23;;;;;;;3.80;3.47;;;;;;;11.06;100.00;98187.94;2168686;82;21073;-87
2022/10/02 02:29:24;;;;;;;3.80;3.55;;;;;;;11.07;100.00;98188.75;2161840;82;21053;-86
2022/10/02 02:32:24;;;;;;;4.33;4.03;;;;;;;11.06;100.00;98188.41;2162091;82;21465;-87
2022/10/02 02:35:25;;;;;;;5.22;4.28;;;;;;;11.07;100.00;98188.24;2144947;82;21080;-88
2022/10/02 02:38:26;;;;;;;4.22;3.83;;;;;;;11.06;100.00;98197.11;2145532;82;21024;-87
2022/10/02 02:41:27;;;;;;;4.22;3.90;;;;;;;11.05;100.00;98197.28;2149012;81;21080;-87
2022/10/02 02:44:28;;;;;;;4.03;3.62;;;;;;;11.05;100.00;98197.28;2161302;81;21524;-88
2022/10/02 02:47:28;;;;;;;4.97;3.90;;;;;;;11.04;100.00;98204.83;2146674;82;21054;-86
2022/10/02 02:50:29;;;;;;;3.95;3.55;;;;;;;11.05;100.00;98202.02;2140617;81;21050;-87
2022/10/02 02:53:29;;;;;;;4.95;4.15;;;;;;;11.05;100.00;98199.39;2141274;81;21052;-86
2022/10/02 02:56:30;;;;;;;4.17;3.75;;;;;;;11.05;100.00;98205.94;2147163;82;21008;-87
2022/10/02 02:59:31;;;;;;;4.25;3.67;;;;;;;11.06;100.00;98208.06;2167537;81;21039;-88
2022/10/02 03:02:32;;;;;;;4.30;3.90;;;;;;;11.06;100.00;98198.42;2162505;81;21053;-85
2022/10/02 03:05:32;;;;;;;5.65;4.30;;;;;;;11.08;100.00;98199.53;2167363;81;20972;-88
2022/10/02 03:08:34;;;;;;;4.33;3.65;;;;;;;11.08;100.00;98210.01;2161191;81;21052;-86
2022/10/02 03:11:34;;;;;;;4.15;3.75;;;;;;;11.10;100.00;98211.92;2111341;83;21104;-87
2022/10/02 03:14:35;;;;;;;5.08;4.67;;;;;;;11.10;100.00;98211.92;2105165;84;21551;-87
2022/10/02 03:17:36;;;;;;;3.98;3.67;;;;;;;11.12;100.00;98212.53;2065058;84;21029;-86
2022/10/02 03:20:38;;;;;;;3.45;3.05;;;;;;;11.12;100.00;98216.46;2086680;84;21226;-84
2022/10/02 03:23:39;;;;;;;3.95;3.52;;;;;;;11.08;100.00;98219.98;2084442;84;21029;-80
2022/10/02 03:26:40;;;;;;;3.70;3.25;;;;;;;11.08;100.00;98219.98;2088682;84;21671;-87
2022/10/02 03:29:40;;;;;;;4.00;3.10;;;;;;;11.10;100.00;98227.64;2079086;84;21044;-87
2022/10/02 03:32:41;;;;;;;3.95;3.15;;;;;;;11.07;100.00;98225.42;2078272;84;21092;-86
2022/10/02 03:35:42;;;;;;;2.77;2.67;;;;;;;11.03;100.00;98224.17;2061693;84;21052;-88
2022/10/02 03:38:43;;;;;;;3.02;2.65;;;;;;;10.99;100.00;98225.08;2087724;85;21084;-87
2022/10/02 03:41:43;;;;;;;3.05;2.15;;;;;;;10.99;100.00;98231.63;2111517;83;21128;-85
2022/10/02 03:44:44;;;;;;;2.70;2.47;;;;;;;11.00;100.00;98232.44;2053067;86;21524;-85
2022/10/02 03:47:45;;;;;;;2.72;2.58;;;;;;;10.98;100.00;98231.83;2043468;86;21619;-85
2022/10/02 03:50:45;;;;;;;2.00;1.90;;;;;;;10.96;100.00;98234.61;2038685;86;21089;-85
2022/10/02 03:53:46;;;;;;;2.35;2.20;;;;;;;10.95;100.00;98234.31;2036543;86;21001;-86
2022/10/02 03:56:47;;;;;;;1.98;1.87;;;;;;;10.96;100.00;98240.36;2025230;85;21361;-85
2022/10/02 03:59:47;;;;;;;2.85;2.45;;;;;;;10.93;100.00;98240.25;2074763;85;21017;-86
2022/10/02 04:02:48;;;;;;;2.33;2.12;;;;;;;10.88;100.00;98253.60;2069900;85;21522;-85
2022/10/02 04:05:49;;;;;;;2.65;1.98;;;;;;;10.85;100.00;98253.49;2073318;85;21020;-85
2022/10/02 04:08:49;;;;;;;1.75;1.75;;;;;;;10.81;100.00;98250.96;2068465;85;21155;-85
2022/10/02 04:11:50;;;;;;;2.40;2.20;;;;;;;10.78;100.00;98256.06;2073748;86;21519;-86
2022/10/02 04:14:51;;;;;;;2.50;2.35;;;;;;;10.77;100.00;98260.19;2066833;86;21552;-85
2022/10/02 04:17:52;;;;;;;2.40;2.30;;;;;;;10.78;100.00;98252.64;2081361;84;21054;-85
2022/10/02 04:20:52;;;;;;;3.92;2.90;;;;;;;10.81;100.00;98267.98;2069540;84;21013;-85
2022/10/02 04:23:53;;;;;;;3.08;2.87;;;;;;;10.78;100.00;98265.23;2099472;84;21028;-86
2022/10/02 04:26:54;;;;;;;2.47;2.25;;;;;;;10.79;100.00;98274.73;2088801;84;21093;-81
2022/10/02 04:29:54;;;;;;;3.35;2.85;;;;;;;10.78;100.00;98270.97;2084391;84;21053;-81
2022/10/02 04:32:55;;;;;;;4.47;2.40;;;;;;;10.77;100.00;98279.83;2083454;84;21533;-81
2022/10/02 04:35:56;;;;;;;3.98;3.60;;;;;;;10.77;100.00;98296.85;2077698;84;21143;-82
2022/10/02 04:38:57;;;;;;;3.75;3.25;;;;;;;10.78;100.00;98295.84;2054186;84;21527;-81
2022/10/02 04:42:13;;;;;;;3.45;3.25;;;;;;;10.78;100.00;98304.52;2089475;84;21019;-87
2022/10/02 04:45:09;;;;;;;4.83;3.10;;;;;;;10.78;100.00;98303.20;2093464;84;21140;-86
2022/10/02 04:48:10;;;;;;;4.00;3.47;;;;;;;10.78;100.00;98303.20;2075479;83;21024;-86
2022/10/02 04:51:11;;;;;;;6.08;3.47;;;;;;;10.76;100.00;98311.75;2052984;84;21643;-87
2022/10/02 04:54:11;;;;;;;3.12;2.92;;;;;;;10.75;100.00;98307.52;2080859;84;21045;-86
2022/10/02 04:57:12;;;;;;;3.75;3.42;;;;;;;10.76;100.00;98314.38;2076696;84;21027;-87
2022/10/02 05:00:13;;;;;;;4.20;3.30;;;;;;;10.79;100.00;98315.83;2080448;84;21052;-85
2022/10/02 05:03:13;;;;;;;5.20;3.17;;;;;;;10.83;100.00;98320.48;2092302;84;21137;-87
2022/10/02 05:06:14;;;;;;;9.18;4.05;;;;;;;10.85;100.00;98322.90;2084198;84;21008;-87
2022/10/02 05:09:15;;;;;;;4.75;3.25;;;;;;;10.87;100.00;98326.13;2081548;84;21081;-83
2022/10/02 05:12:15;;;;;;;4.42;3.30;;;;;;;10.88;100.00;98326.94;2087403;85;21057;-85
2022/10/02 05:15:16;;;;;;;3.95;3.12;;;;;;;10.91;100.00;98335.24;2080783;85;20988;-85
2022/10/02 05:18:17;;;;;;;2.80;2.60;;;;;;;10.91;100.00;98333.13;2078162;85;21026;-84
2022/10/02 05:21:18;;;;;;;4.50;2.55;;;;;;;10.93;100.00;98338.98;2076229;86;21082;-85
2022/10/02 05:24:19;;;;;;;3.08;2.70;;;;;;;10.95;100.00;98348.76;2076098;84;22040;-85
2022/10/02 05:27:19;;;;;;;3.05;2.27;;;;;;;10.93;100.00;98346.33;2085871;84;21077;-85
2022/10/02 05:30:20;;;;;;;5.37;2.87;;;;;;;10.94;100.00;98354.50;2084623;84;21028;-89
2022/10/02 05:33:21;;;;;;;2.20;2.08;;;;;;;10.96;100.00;98351.69;2093081;84;21091;-88
2022/10/02 05:36:22;;;;;;;2.75;2.50;;;;;;;10.96;100.00;98356.42;2086649;84;21066;-86
2022/10/02 05:39:24;;;;;;;2.45;1.98;;;;;;;10.99;100.00;98365.73;2084530;84;21163;-87
2022/10/02 05:42:24;;;;;;;2.72;2.50;;;;;;;11.07;100.00;98366.91;2050993;84;21062;-86
2022/10/02 05:45:25;;;;;;;1.67;1.50;;;;;;;11.07;100.00;98366.91;2074573;84;21124;-87
2022/10/02 05:48:26;;;;;;;4.20;2.10;;;;;;;11.08;100.00;98370.64;2060399;85;21053;-86
2022/10/02 05:51:26;;;;;;;2.52;1.80;;;;;;;11.13;100.00;98363.50;2079144;84;20974;-85
2022/10/02 05:54:27;;;;;;;1.72;1.60;;;;;;;11.13;100.00;98373.98;2079672;84;21751;-87
2022/10/02 05:57:28;;;;;;;1.50;1.40;;;;;;;11.16;100.00;98383.30;2082526;85;21073;-86
2022/10/02 06:00:29;;;;;;;3.15;1.55;;;;;;;11.14;100.00;98380.03;2083961;84;21641;-90
2022/10/02 06:03:30;;;;;;;1.20;1.10;;;;;;;11.15;100.00;98387.69;2085344;84;21037;-89
2022/10/02 06:06:30;;;;;;;3.17;1.65;;;;;;;11.21;100.00;98394.80;2079604;84;21845;-85
2022/10/02 06:09:31;;;;;;;3.15;1.90;;;;;;;11.24;100.00;98395.72;2081446;85;21071;-88
2022/10/02 06:12:34;;;;;;;2.92;1.60;;;;;;;11.29;100.00;98400.41;2144148;81;21076;-87
2022/10/02 06:15:35;;;;;;;3.47;1.80;;;;;;;11.31;100.00;98406.25;2139142;82;21024;-87
2022/10/02 06:18:47;;;;;;;2.25;1.70;;;;;;;11.35;100.00;98406.20;2082195;84;21075;-88
2022/10/02 06:21:40;;;;;;;3.42;2.08;;;;;;;11.33;100.00;98410.80;2084326;84;21586;-88
2022/10/02 06:24:41;;;;;;;4.95;2.02;;;;;;;11.31;100.00;98411.50;2145564;81;21098;-90
2022/10/02 06:27:50;;;;;;;3.95;2.10;;;;;;;11.31;100.00;98414.12;2148275;81;21559;-89
2022/10/02 06:30:47;;;;;;;2.30;1.70;;;;;;;11.34;100.00;98417.19;2086572;84;21098;-88
2022/10/02 06:33:48;;;;;;;4.65;2.45;;;;;;;11.43;100.00;98426.19;2083777;85;21051;-89
2022/10/02 06:36:49;;;;;;;3.08;1.80;;;;;;;11.44;100.00;98425.21;2149920;82;21030;-87
2022/10/02 06:39:52;;;;;;;1.77;1.30;;;;;;;11.51;100.00;98431.28;2148236;82;21036;-87
2022/10/02 06:42:53;;;;;;;3.85;1.67;;;;;;;11.54;100.00;98426.48;2135268;82;21098;-90
2022/10/02 06:45:59;;;;;;;4.12;1.72;;;;;;;11.58;100.00;98443.94;2141856;81;21754;-88
2022/10/02 06:49:06;;;;;;;5.33;2.30;;;;;;;11.58;100.00;98449.19;2115700;81;21581;-85
2022/10/02 06:55:12;;;;;;;3.60;2.15;;;;;;;11.62;100.00;98457.00;2050172;85;21079;-88
2022/10/02 06:58:12;;;;;;;6.87;2.02;;;;;;;11.67;100.00;98464.58;2091578;85;21018;-88
2022/10/02 07:01:34;;;;;;;4.35;2.15;;;;;;;11.67;100.00;98460.64;2069664;85;21087;-90
2022/10/02 07:04:20;;;;;;;5.22;2.30;;;;;;;11.66;100.00;98466.89;2050290;85;21076;-87
2022/10/02 07:07:49;;;;;;;;;;;;;;;;;;;;;
2022/10/02 07:10:57;;;;;;;3.05;2.05;;;;;;;11.75;100.00;98466.75;2065684;85;21045;-88
2022/10/02 07:13:58;;;;;;;3.05;1.57;;;;;;;11.83;100.00;98468.75;2063201;85;21264;-86
2022/10/02 07:16:58;;;;;;;2.45;1.65;;;;;;;11.89;100.00;98476.36;2068833;85;21093;-87
2022/10/02 07:19:59;;;;;;;3.12;1.87;;;;;;;11.91;100.00;98477.78;2060851;85;21653;-89
2022/10/02 07:23:00;;;;;;;3.10;1.52;;;;;;;11.95;100.00;98471.13;2059984;85;21045;-88
2022/10/02 07:26:01;;;;;;;4.08;1.70;;;;;;;11.99;100.00;98474.69;2042748;85;21068;-88
2022/10/02 07:29:02;;;;;;;6.00;1.85;;;;;;;12.03;100.00;98471.47;2078324;84;21207;-89
2022/10/02 07:32:09;;;;;;;4.75;1.95;;;;;;;12.10;100.00;98474.94;2077194;85;21619;-89
2022/10/02 07:35:07;;;;;;;3.85;1.95;;;;;;;12.15;100.00;98480.41;2059533;85;21689;-86
2022/10/02 07:38:08;;;;;;;3.55;2.05;;;;;;;12.23;100.00;98474.18;2075040;85;21069;-87
2022/10/02 07:41:08;;;;;;;4.40;1.55;;;;;;;12.30;100.00;98480.78;2074282;85;21015;-87
2022/10/02 07:44:09;;;;;;;5.65;1.80;;;;;;;12.36;100.00;98476.06;2093058;85;21022;-84
2022/10/02 07:47:10;;;;;;;3.02;2.10;;;;;;;12.47;100.00;98482.87;2077142;85;21037;-88
2022/10/02 07:50:11;;;;;;;3.22;1.80;;;;;;;12.56;100.00;98476.94;2088078;85;21036;-89
2022/10/02 07:53:12;;;;;;;6.67;1.70;;;;;;;12.62;100.00;98483.20;2150604;82;21558;-88
2022/10/02 07:56:18;;;;;;;7.15;1.80;;;;;;;12.65;100.00;98487.57;2147351;82;21039;-87
2022/10/02 07:59:15;;;;;;;7.72;1.77;;;;;;;12.67;100.00;98484.73;2147945;82;21552;-89
2022/10/02 08:02:16;;;;;;;5.70;2.12;;;;;;;12.70;100.00;98482.52;2150063;82;21111;-88
2022/10/02 08:05:16;;;;;;;4.92;1.77;;;;;;;12.74;100.00;98486.38;2149339;82;21024;-89
2022/10/02 08:08:17;;;;;;;3.20;2.90;;;;;;;12.75;100.00;98481.43;2152956;82;21047;-88
2022/10/02 08:11:18;;;;;;;5.60;2.30;;;;;;;12.80;100.00;98475.09;2152229;82;21032;-88
2022/10/02 08:14:19;;;;;;;2.30;1.85;;;;;;;12.88;100.00;98477.20;2142162;82;21520;-89
2022/10/02 08:17:20;;;;;;;5.47;1.67;;;;;;;12.99;100.00;98470.87;2156360;82;21069;-88
2022/10/02 08:20:21;;;;;;;5.42;1.98;;;;;;;13.14;100.00;98473.80;2152481;82;21007;-86
2022/10/02 08:23:22;;;;;;;6.80;2.20;;;;;;;13.22;100.00;98473.62;2153805;82;21098;-84
2022/10/02 08:26:22;;;;;;;6.87;2.37;;;;;;;13.30;100.00;98475.55;2157760;82;21064;-89
2022/10/02 08:29:23;;;;;;;5.33;2.92;;;;;;;13.53;100.00;98479.09;2149742;82;21083;-87
2022/10/02 08:32:24;;;;;;;4.17;1.82;;;;;;;13.66;100.00;98472.49;2153834;82;21002;-87
2022/10/02 08:35:26;;;;;;;5.30;2.92;;;;;;;13.81;100.00;98470.95;2153103;82;22186;-87
2022/10/02 08:38:27;;;;;;;4.78;1.95;;;;;;;13.92;100.00;98468.19;2142798;82;21940;-86
2022/10/02 08:41:28;;;;;;;2.98;1.92;;;;;;;13.99;100.00;98468.99;2155279;82;21045;-87
2022/10/02 08:44:29;;;;;;;4.85;1.82;;;;;;;14.00;100.00;98461.39;2155588;82;21000;-86
2022/10/02 08:47:31;;;;;;;4.58;2.08;;;;;;;14.04;100.00;98461.77;2140980;82;21095;-87
2022/10/02 08:50:32;;;;;;;7.17;2.30;;;;;;;14.08;100.00;98459.84;2152144;82;21068;-89
2022/10/02 08:53:34;;;;;;;3.40;1.90;;;;;;;14.13;100.00;98465.80;2119915;82;21902;-89
2022/10/02 08:56:34;;;;;;;3.95;1.87;;;;;;;14.14;100.00;98459.50;2145401;82;20997;-87
2022/10/02 08:59:35;;;;;;;4.80;1.67;;;;;;;14.17;100.00;98469.61;2145571;82;21046;-88
2022/10/02 09:02:36;;;;;;;4.83;1.62;;;;;;;14.13;100.00;98463.97;2157461;82;21049;-88
2022/10/02 09:05:38;;;;;;;5.97;2.02;;;;;;;14.20;100.00;98467.90;2155725;82;21061;-88
2022/10/02 09:08:39;;;;;;;2.83;1.55;;;;;;;14.33;100.00;98466.52;2156050;82;21100;-87
2022/10/02 09:11:40;;;;;;;8.68;2.55;;;;;;;14.51;100.00;98463.22;2148751;82;21092;-86
2022/10/02 09:14:42;;;;;;;6.25;1.70;;;;;;;14.65;100.00;98458.70;2153855;82;21091;-84
2022/10/02 09:17:47;;;;;;;9.08;2.12;;;;;;;14.68;100.00;98460.91;2153880;82;21045;-89
2022/10/02 09:20:45;;;;;;;6.05;2.30;;;;;;;14.67;100.00;98471.95;2152671;82;21041;-85
2022/10/02 09:23:46;;;;;;;5.58;1.70;;;;;;;14.57;100.00;98460.27;2143204;82;21000;-88
2022/10/02 09:26:47;;;;;;;9.48;2.25;;;;;;;14.56;100.00;98458.14;2149815;82;21073;-83
2022/10/02 09:29:49;;;;;;;8.60;2.25;;;;;;;14.47;100.00;98449.67;2158600;82;21101;-85
2022/10/02 09:32:49;;;;;;;6.37;2.27;;;;;;;14.37;100.00;98457.70;2132891;82;21151;-88
2022/10/02 09:35:50;;;;;;;5.83;2.75;;;;;;;14.36;100.00;98454.78;2154449;82;21507;-84
2022/10/02 09:38:51;;;;;;;5.92;2.40;;;;;;;14.34;100.00;98450.20;2164132;82;21114;-84
2022/10/02 09:41:51;;;;;;;4.70;2.08;;;;;;;14.30;100.00;98453.78;2152416;82;20981;-84
2022/10/02 09:44:57;;;;;;;6.60;1.77;;;;;;;14.35;100.00;98444.72;2152412;82;21058;-87
2022/10/02 09:48:00;;;;;;;6.72;2.30;;;;;;;14.34;100.00;98450.20;2150258;82;21026;-84
2022/10/02 09:50:57;;;;;;;4.65;1.82;;;;;;;14.24;100.00;98441.44;2158496;82;21129;-93
2022/10/02 09:54:00;;;;;;;5.50;2.33;;;;;;;14.45;100.00;98433.80;2145506;82;21045;-86
2022/10/02 09:57:02;;;;;;;3.83;2.20;;;;;;;14.52;100.00;98430.59;2045705;86;21058;-87
2022/10/02 10:00:04;;;;;;;6.92;2.27;;;;;;;14.59;100.00;98426.61;2028903;86;21122;-87
2022/10/02 10:03:04;;;;;;;4.72;1.80;;;;;;;14.69;100.00;98426.44;2027157;86;21099;-86
2022/10/02 10:06:05;;;;;;;6.42;1.87;;;;;;;14.75;100.00;98431.37;2023579;86;21123;-86
2022/10/02 10:09:06;;;;;;;3.60;1.72;;;;;;;14.66;100.00;98433.45;2055577;86;21061;-85
2022/10/02 10:12:07;;;;;;;6.17;2.10;;;;;;;14.61;100.00;98424.05;2021401;86;21643;-86
2022/10/02 10:15:08;;;;;;;4.70;1.45;;;;;;;14.50;100.00;98420.78;2023149;86;21660;-89
2022/10/02 10:18:09;;;;;;;6.08;2.40;;;;;;;14.46;100.00;98422.23;2011016;86;21066;-86
2022/10/02 10:21:09;;;;;;;7.05;2.40;;;;;;;14.48;100.00;98425.45;2013000;86;21201;-85
2022/10/02 10:24:11;;;;;;;6.33;2.17;;;;;;;14.50;100.00;98421.58;2011031;86;21065;-88
2022/10/02 10:27:12;;;;;;;7.28;2.00;;;;;;;14.56;100.00;98422.58;2028154;86;21193;-90
2022/10/02 10:30:14;;;;;;;5.20;2.30;;;;;;;14.76;100.00;98410.59;2035003;86;21560;-84
2022/10/02 10:33:15;;;;;;;7.37;2.12;;;;;;;15.05;100.00;98419.18;2021025;86;21133;-86
2022/10/02 10:39:35;;;;;;;6.95;2.60;;;;;;;15.54;100.00;98416.20;2053245;86;21146;-88
2022/10/02 10:42:35;;;;;;;4.78;1.65;;;;;;;15.67;100.00;98413.18;2044968;86;21026;-86
2022/10/02 10:45:36;;;;;;;4.03;2.15;;;;;;;15.72;100.00;98414.11;2045370;85;21029;-86
2022/10/02 10:48:37;;;;;;;7.80;2.00;;;;;;;15.61;100.00;98426.72;2020760;86;21085;-87
2022/10/02 10:51:39;;;;;;;5.55;1.67;;;;;;;15.43;100.00;98420.88;2036619;86;21565;-86
2022/10/02 10:54:43;;;;;;;6.58;2.25;;;;;;;15.28;100.00;98414.64;2125896;82;21593;-86
2022/10/02 10:57:42;;;;;;;3.75;1.65;;;;;;;15.20;100.00;98400.41;2143228;82;21097;-87
2022/10/02 11:00:43;;;;;;;5.22;1.98;;;;;;;15.18;100.00;98410.85;2147920;82;21010;-90
2022/10/02 11:03:43;;;;;;;6.85;2.30;;;;;;;15.20;100.00;98407.00;2141794;82;21594;-86
2022/10/02 11:06:49;;;;;;;6.67;2.17;;;;;;;15.15;100.00;98403.39;2140194;82;21001;-88
2022/10/02 11:09:47;;;;;;;6.75;2.92;;;;;;;14.98;100.00;98407.87;2143036;82;20997;-87
2022/10/02 11:12:47;;;;;;;7.45;2.52;;;;;;;14.89;100.00;98407.84;2161656;82;21064;-85
2022/10/02 11:15:48;;;;;;;3.55;2.02;;;;;;;14.86;100.00;98404.84;2147577;81;21096;-86
2022/10/02 11:18:49;;;;;;;6.03;1.98;;;;;;;14.92;100.00;98407.95;2151544;82;21036;-87
2022/10/02 11:21:50;;;;;;;6.92;1.80;;;;;;;14.89;100.00;98383.31;2157057;82;21547;-85
2022/10/02 11:24:54;;;;;;;3.85;1.85;;;;;;;14.89;100.00;98390.71;2162745;82;21096;-86
2022/10/02 11:27:56;;;;;;;3.87;1.40;;;;;;;14.94;100.00;98397.48;2156042;82;21052;-84
2022/10/02 11:30:57;;;;;;;4.65;1.70;;;;;;;15.02;100.00;98393.25;2147338;82;21053;-84
2022/10/02 11:33:57;;;;;;;6.50;1.60;;;;;;;15.06;100.00;98384.39;2156180;82;21028;-86
2022/10/02 11:36:58;;;;;;;5.87;1.62;;;;;;;15.18;100.00;98391.08;2150566;82;21069;-87
2022/10/02 11:39:59;;;;;;;3.62;1.60;;;;;;;15.41;100.00;98397.88;2158665;82;21084;-85
2022/10/02 11:43:03;;;;;;;4.35;1.30;;;;;;;15.57;100.00;98392.03;2149516;82;21049;-83
2022/10/02 11:46:02;;;;;;;7.50;1.95;;;;;;;15.67;100.00;98386.27;2161609;82;21026;-83
2022/10/02 11:49:06;;;;;;;2.65;1.17;;;;;;;15.75;100.00;98371.98;2152596;82;21128;-86
2022/10/02 11:52:07;;;;;;;4.80;1.80;;;;;;;15.66;100.00;98383.34;2156126;82;21156;-88
2022/10/02 11:55:08;;;;;;;5.20;1.45;;;;;;;15.56;100.00;98387.78;2159360;82;21072;-87
2022/10/02 11:58:09;;;;;;;6.30;2.00;;;;;;;15.39;100.00;98388.57;2149899;82;21023;-85
2022/10/02 12:01:10;;;;;;;5.75;1.95;;;;;;;15.18;100.00;98386.64;2143044;82;21107;-84
2022/10/02 12:04:10;;;;;;;5.33;1.52;;;;;;;15.02;100.00;98368.21;2159642;82;21030;-84
2022/10/02 12:07:14;;;;;;;3.80;1.98;;;;;;;14.95;100.00;98384.59;2152466;81;21004;-83
2022/10/02 12:10:15;;;;;;;7.10;2.12;;;;;;;14.88;100.00;98379.06;2158897;82;21070;-84
2022/10/02 12:13:15;;;;;;;5.65;2.40;;;;;;;14.78;100.00;98365.86;2148116;82;21072;-83
2022/10/02 12:16:16;;;;;;;6.35;2.50;;;;;;;14.79;100.00;98367.47;2145068;82;21040;-85
2022/10/02 12:19:17;;;;;;;5.87;2.45;;;;;;;14.84;100.00;98369.48;2158901;82;21005;-85
2022/10/02 12:28:58;;;;;;;2.50;1.40;;;;;;;15.30;100.00;98350.60;2151961;82;21592;-88
2022/10/02 12:31:58;;;;;;;5.00;2.02;;;;;;;15.54;100.00;98359.47;2157365;82;21017;-87
2022/10/02 12:34:59;;;;;;;5.95;1.60;;;;;;;15.64;100.00;98355.86;2149006;82;20997;-84
2022/10/02 12:38:00;;;;;;;9.15;2.33;;;;;;;15.71;100.00;98351.80;2154886;81;21485;-86
2022/10/02 12:41:02;;;;;;;6.97;1.45;;;;;;;15.77;100.00;98351.44;2146723;81;21000;-84
2022/10/02 12:44:03;;;;;;;5.33;1.90;;;;;;;15.75;100.00;98357.46;2156604;82;21052;-85
2022/10/02 12:47:03;;;;;;;4.90;1.32;;;;;;;15.90;100.00;98355.23;2146289;82;21067;-86
2022/10/02 12:50:05;;;;;;;4.53;1.90;;;;;;;16.01;100.00;98361.10;2080662;84;21057;-83
2022/10/02 12:53:06;;;;;;;4.72;2.20;;;;;;;16.14;100.00;98355.64;2086384;85;21131;-85
2022/10/02 12:56:09;;;;;;;4.83;2.55;;;;;;;16.32;100.00;98357.94;2081993;85;20982;-87
2022/10/02 12:59:09;;;;;;;6.05;2.30;;;;;;;16.49;100.00;98350.47;2078612;84;21140;-85
2022/10/02 13:02:10;;;;;;;6.90;2.20;;;;;;;16.56;100.00;98339.81;2070404;85;21058;-87
2022/10/02 13:05:11;;;;;;;5.47;1.70;;;;;;;16.66;100.00;98351.14;2060054;85;21037;-88
2022/10/02 13:08:13;;;;;;;2.98;1.40;;;;;;;16.94;100.00;98335.98;2153438;82;21600;-88
2022/10/02 13:11:13;;;;;;;4.28;1.50;;;;;;;17.23;100.00;98325.78;2146222;82;21159;-85
2022/10/02 13:14:15;;;;;;;4.33;1.12;;;;;;;17.52;100.00;98325.86;2157911;82;21469;-87
2022/10/02 13:17:16;;;;;;;3.83;1.57;;;;;;;17.76;100.00;98314.73;2156494;82;21058;-86
2022/10/02 13:20:16;;;;;;;3.17;1.10;;;;;;;17.83;100.00;98298.16;2152066;81;21036;-86
2022/10/02 13:23:17;;;;;;;3.17;1.12;;;;;;;17.78;100.00;98298.08;2151171;82;21044;-86
2022/10/02 13:26:21;;;;;;;4.40;0.85;;;;;;;17.63;100.00;98308.61;2156300;82;21067;-87
2022/10/02 13:29:21;;;;;;;4.75;1.40;;;;;;;17.54;100.00;98306.57;2154330;82;21564;-86
2022/10/02 13:32:22;;;;;;;2.65;1.12;;;;;;;17.29;100.00;98303.70;2160093;81;21129;-88
2022/10/02 13:35:23;;;;;;;3.95;1.25;;;;;;;17.16;100.00;98304.45;2158942;82;21012;-87
2022/10/02 13:38:24;;;;;;;3.08;1.02;;;;;;;17.03;100.00;98316.89;2151863;82;21035;-86
2022/10/02 13:41:25;;;;;;;5.28;1.25;;;;;;;16.84;100.00;98311.43;2151129;82;21023;-87
2022/10/02 13:44:25;;;;;;;4.35;1.85;;;;;;;16.63;100.00;98304.80;2144126;82;21048;-85
2022/10/02 13:47:26;;;;;;;5.15;2.00;;;;;;;16.45;100.00;98304.89;2158551;82;21036;-86
2022/10/02 13:50:27;;;;;;;6.05;1.98;;;;;;;16.36;100.00;98314.17;2143083;82;21036;-87
2022/10/02 13:53:28;;;;;;;6.37;1.62;;;;;;;16.31;100.00;98307.46;2155178;82;21128;-87
2022/10/02 13:56:28;;;;;;;3.40;1.47;;;;;;;16.28;100.00;98294.72;2140346;82;21543;-88
2022/10/02 13:59:29;;;;;;;1.92;1.00;;;;;;;16.41;100.00;98300.59;2153782;82;21056;-87
2022/10/02 14:02:30;;;;;;;3.00;1.35;;;;;;;16.51;100.00;98311.92;2155883;82;21579;-88
2022/10/02 14:05:31;;;;;;;1.55;0.75;;;;;;;16.58;100.00;98301.25;2150976;82;22163;-87
2022/10/02 14:08:32;;;;;;;1.25;1.15;;;;;;;16.69;100.00;98299.97;2143707;82;21004;-85
2022/10/02 14:11:34;;;;;;;3.27;2.08;;;;;;;16.75;100.00;98306.19;2120295;82;20985;-88
2022/10/02 14:14:35;;;;;;;2.75;1.72;;;;;;;16.77;100.00;98303.59;2154224;82;21048;-86
2022/10/02 14:17:36;;;;;;;2.85;1.92;;;;;;;16.66;100.00;98300.92;2151116;82;21056;-87